Time;durP1;ratioP1;P1;durP2;ratioP2;P2;SDS_P1;SDS_P2;PMS_P1;PMS_P2;Temp;Humidity;BMP_temperature;BMP_pressure;BME280_temperature;BME280_humidity;BME280_pressure;Samples;Min_cycle;Max_cycle;Signal;HPM_P1;HPM_P2
2024/01/18 00:02:10;;;;;;;22.77;11.85;;;0.60;84.40;;;;;;9175870;19;20148;-69
2024/01/18 00:05:18;;;;;;;26.50;12.70;;;0.60;84.50;;;;;;9177919;19;20367;-72
2024/01/18 00:08:26;;;;;;;34.28;13.20;;;0.60;84.50;;;;;;9176431;19;20022;-69
2024/01/18 00:11:31;;;;;;;26.60;12.90;;;0.50;84.50;;;;;;9173916;19;20014;-72
2024/01/18 00:14:39;;;;;;;26.00;13.43;;;0.50;84.50;;;;;;9174755;19;20011;-71
2024/01/18 00:17:44;;;;;;;20.88;12.05;;;0.50;84.50;;;;;;9177227;19;20052;-71
2024/01/18 00:20:55;;;;;;;28.23;12.88;;;0.50;84.50;;;;;;9176101;19;20026;-71
2024/01/18 00:24:00;;;;;;;23.23;12.68;;;0.50;84.50;;;;;;9174792;19;20050;-72
2024/01/18 00:27:09;;;;;;;23.67;12.05;;;0.50;84.60;;;;;;9176519;19;20021;-71
2024/01/18 00:30:17;;;;;;;26.25;13.50;;;0.40;84.50;;;;;;9175862;19;20106;-72
2024/01/18 00:33:25;;;;;;;26.42;13.68;;;0.40;84.50;;;;;;9173034;19;20019;-71
2024/01/18 00:36:33;;;;;;;24.60;12.70;;;0.40;84.50;;;;;;9174862;19;20010;-71
2024/01/18 00:39:44;;;;;;;30.67;12.95;;;0.40;84.50;;;;;;9175907;19;20024;-71
2024/01/18 00:42:49;;;;;;;31.08;13.80;;;0.40;84.50;;;;;;9173254;19;20019;-71
2024/01/18 00:45:57;;;;;;;25.55;13.20;;;0.40;84.60;;;;;;9175669;19;20018;-71
2024/01/18 00:49:02;;;;;;;31.70;15.02;;;0.30;84.50;;;;;;9176267;19;20053;-72
2024/01/18 00:52:13;;;;;;;26.15;13.93;;;0.40;85.20;;;;;;9175477;19;20021;-71
2024/01/18 00:55:18;;;;;;;31.05;14.80;;;0.40;84.60;;;;;;9175874;19;20546;-72
2024/01/18 00:58:26;;;;;;;31.65;13.88;;;0.30;85.20;;;;;;9175771;19;20025;-71
2024/01/18 01:01:31;;;;;;;27.55;12.90;;;0.30;84.60;;;;;;9173032;19;20523;-71
2024/01/18 01:04:39;;;;;;;27.02;12.88;;;0.30;84.60;;;;;;9170933;19;20018;-71
2024/01/18 01:07:47;;;;;;;25.55;12.77;;;0.30;84.60;;;;;;9173488;19;20015;-71
2024/01/18 01:10:57;;;;;;;27.17;12.85;;;0.30;84.60;;;;;;9170576;19;20022;-71
2024/01/18 01:14:03;;;;;;;28.65;12.93;;;0.20;84.50;;;;;;9175231;19;20399;-71
2024/01/18 01:17:10;;;;;;;28.25;13.55;;;0.20;84.60;;;;;;9173908;19;20040;-71
2024/01/18 01:20:16;;;;;;;27.80;13.18;;;0.20;84.60;;;;;;9174920;19;20018;-71
2024/01/18 01:23:26;;;;;;;27.65;13.57;;;0.20;85.20;;;;;;9171151;19;20018;-70
2024/01/18 01:26:32;;;;;;;26.67;13.52;;;0.20;84.60;;;;;;9180321;19;20011;-70
2024/01/18 01:29:39;;;;;;;30.05;13.48;;;0.10;84.60;;;;;;9180672;19;20040;-71
2024/01/18 01:32:45;;;;;;;25.40;12.43;;;0.20;84.60;;;;;;9184038;19;20040;-71
2024/01/18 01:35:53;;;;;;;26.88;13.95;;;0.20;84.60;;;;;;9182769;19;20108;-70
2024/01/18 01:39:03;;;;;;;32.28;14.70;;;0.10;84.60;;;;;;9183792;19;20046;-70
2024/01/18 01:42:11;;;;;;;35.10;13.75;;;0.10;84.60;;;;;;9180866;19;20014;-70
2024/01/18 01:45:17;;;;;;;27.75;14.73;;;0.10;84.60;;;;;;9181794;19;20015;-71
2024/01/18 01:48:25;;;;;;;28.77;14.93;;;0.10;84.70;;;;;;9183509;19;20028;-72
2024/01/18 01:51:35;;;;;;;28.27;13.93;;;0.00;84.60;;;;;;9182966;19;20019;-71
2024/01/18 01:54:57;;;;;;;;;;;0.00;84.60;;;;;;9184169;19;20017;-70
2024/01/18 01:58:03;;;;;;;30.73;13.35;;;0.00;84.70;;;;;;9183531;19;19931;-70
2024/01/18 02:01:10;;;;;;;24.88;13.90;;;0.00;84.60;;;;;;9182813;19;20524;-71
2024/01/18 02:04:16;;;;;;;25.02;13.52;;;0.00;84.60;;;;;;9180880;19;20056;-72
2024/01/18 02:07:25;;;;;;;28.33;13.30;;;0.00;84.70;;;;;;9182021;19;20014;-72
2024/01/18 02:10:33;;;;;;;30.05;15.75;;;-0.10;84.70;;;;;;9179501;19;20489;-72
2024/01/18 02:13:54;;;;;;;38.97;15.20;;;-0.10;84.70;;;;;;9182048;19;20026;-71
2024/01/18 02:17:00;;;;;;;32.95;14.40;;;-0.10;84.70;;;;;;9182411;19;20019;-71
2024/01/18 02:20:09;;;;;;;28.38;14.40;;;-0.10;84.70;;;;;;9182178;19;20369;-71
2024/01/18 02:23:15;;;;;;;29.08;14.65;;;-0.10;84.70;;;;;;9180070;19;20379;-72
2024/01/18 02:26:25;;;;;;;29.02;15.02;;;-0.10;84.70;;;;;;9177373;19;20034;-72
2024/01/18 02:29:30;;;;;;;28.17;13.45;;;-0.10;84.60;;;;;;9182192;19;20010;-73
2024/01/18 02:32:38;;;;;;;31.02;13.80;;;-0.10;84.70;;;;;;9181818;19;20378;-72
2024/01/18 02:35:44;;;;;;;28.83;14.73;;;-0.10;84.70;;;;;;9180724;19;20010;-72
2024/01/18 02:38:52;;;;;;;25.58;13.82;;;-0.20;84.70;;;;;;9179523;19;20042;-72
2024/01/18 02:42:01;;;;;;;25.67;14.15;;;-0.20;84.70;;;;;;9181471;19;20019;-72
2024/01/18 02:45:09;;;;;;;24.23;14.45;;;-0.10;84.70;;;;;;9178031;19;20026;-72
2024/01/18 02:48:15;;;;;;;30.60;14.63;;;-0.20;84.70;;;;;;9181651;19;20035;-71
2024/01/18 02:51:23;;;;;;;29.00;14.05;;;-0.20;84.70;;;;;;9180758;19;20452;-72
2024/01/18 02:54:28;;;;;;;31.73;13.70;;;-0.20;84.70;;;;;;9180958;19;20014;-72
2024/01/18 02:57:41;;;;;;;26.98;13.45;;;-0.20;84.70;;;;;;9179320;19;20006;-72
2024/01/18 03:00:47;;;;;;;23.25;12.73;;;-0.20;84.70;;;;;;9181483;19;20062;-73
2024/01/18 03:03:55;;;;;;;26.73;12.85;;;-0.20;84.70;;;;;;9179690;19;20019;-72
2024/01/18 03:07:00;;;;;;;31.70;13.68;;;-0.30;84.70;;;;;;9180213;19;20013;-74
2024/01/18 03:10:09;;;;;;;26.85;14.30;;;-0.30;84.60;;;;;;9174952;19;20025;-73
2024/01/18 03:13:17;;;;;;;28.95;13.35;;;-0.30;84.70;;;;;;9180343;19;20022;-72
2024/01/18 03:16:25;;;;;;;26.23;13.38;;;-0.30;84.70;;;;;;9177164;19;20018;-72
2024/01/18 03:19:30;;;;;;;24.98;12.88;;;-0.40;85.20;;;;;;9178886;19;20468;-72
2024/01/18 03:22:41;;;;;;;26.02;12.88;;;-0.40;84.60;;;;;;9176819;19;20022;-72
2024/01/18 03:25:47;;;;;;;24.10;12.68;;;-0.40;84.60;;;;;;9174046;19;20014;-71
2024/01/18 03:28:57;;;;;;;28.27;12.10;;;-0.50;84.50;;;;;;9178476;19;20030;-73
2024/01/18 03:32:03;;;;;;;21.13;12.07;;;-0.50;84.60;;;;;;9177037;19;20525;-73
2024/01/18 03:35:11;;;;;;;21.98;12.45;;;-0.50;84.60;;;;;;9176171;19;20018;-73
2024/01/18 03:38:16;;;;;;;23.65;11.70;;;-0.50;84.60;;;;;;9175235;19;20026;-73
2024/01/18 03:41:24;;;;;;;25.45;12.85;;;-0.60;84.50;;;;;;9177419;19;20018;-72
2024/01/18 03:44:32;;;;;;;20.40;11.52;;;-0.60;84.50;;;;;;9177077;19;20031;-71
2024/01/18 03:47:39;;;;;;;27.20;12.10;;;-0.60;84.60;;;;;;9176901;19;20014;-72
2024/01/18 03:50:45;;;;;;;30.73;13.38;;;-0.70;84.60;;;;;;9177995;19;20126;-71
2024/01/18 03:53:52;;;;;;;30.40;12.38;;;-0.70;84.50;;;;;;9176943;19;20365;-72
2024/01/18 03:56:58;;;;;;;28.40;11.50;;;-0.80;84.50;;;;;;9176274;19;20018;-71
2024/01/18 04:00:09;;;;;;;23.88;11.60;;;-0.80;84.50;;;;;;9177528;19;20014;-71
2024/01/18 04:03:15;;;;;;;25.15;12.88;;;-0.90;84.40;;;;;;9177875;19;20021;-71
2024/01/18 04:06:23;;;;;;;24.58;12.25;;;-0.90;84.40;;;;;;9175269;19;20018;-71
2024/01/18 04:09:28;;;;;;;26.05;11.73;;;-0.90;84.50;;;;;;9171330;19;20799;-71
2024/01/18 04:12:36;;;;;;;27.40;12.90;;;-0.90;84.50;;;;;;9177670;19;20369;-71
2024/01/18 04:15:45;;;;;;;24.77;12.77;;;-1.00;84.40;;;;;;9178105;19;20516;-71
2024/01/18 04:18:52;;;;;;;24.02;12.55;;;-1.00;84.40;;;;;;9175085;19;20010;-72
2024/01/18 04:21:58;;;;;;;25.95;12.98;;;-1.10;84.50;;;;;;9177274;19;20348;-72
2024/01/18 04:25:06;;;;;;;25.92;12.32;;;-1.10;84.40;;;;;;9176047;19;20022;-71
2024/01/18 04:28:12;;;;;;;28.00;13.60;;;-1.10;84.40;;;;;;9175804;19;20117;-72
2024/01/18 04:31:22;;;;;;;23.42;12.57;;;-1.10;84.50;;;;;;9174367;19;20472;-71
2024/01/18 04:34:28;;;;;;;22.60;12.20;;;-1.20;84.40;;;;;;9178405;19;20592;-72
2024/01/18 04:37:35;;;;;;;24.02;11.90;;;-1.20;84.40;;;;;;9174886;19;20010;-72
2024/01/18 04:40:41;;;;;;;33.85;13.23;;;-1.30;84.30;;;;;;9176288;19;20107;-72
2024/01/18 04:43:48;;;;;;;23.15;12.70;;;-1.30;84.40;;;;;;9177137;19;20011;-72
2024/01/18 04:46:57;;;;;;;27.15;13.35;;;-1.30;84.40;;;;;;9176977;19;20007;-72
2024/01/18 04:50:04;;;;;;;23.70;13.35;;;-1.30;84.40;;;;;;9175247;19;20011;-73
2024/01/18 04:53:10;;;;;;;22.63;12.07;;;-1.40;84.40;;;;;;9174407;19;20014;-74
2024/01/18 04:56:18;;;;;;;30.33;11.90;;;-1.40;84.40;;;;;;9175006;19;20018;-74
2024/01/18 04:59:24;;;;;;;28.40;11.98;;;-1.40;84.40;;;;;;9176730;19;20014;-75
2024/01/18 05:02:34;;;;;;;31.70;11.82;;;-1.50;84.40;;;;;;9174483;19;20029;-71
2024/01/18 05:05:40;;;;;;;26.10;12.77;;;-1.50;84.40;;;;;;9174360;19;20006;-73
2024/01/18 05:08:49;;;;;;;30.00;12.52;;;-1.50;84.40;;;;;;9174064;19;20405;-74
2024/01/18 05:11:54;;;;;;;26.38;12.98;;;-1.60;85.00;;;;;;9170262;19;20034;-70
2024/01/18 05:15:02;;;;;;;25.77;11.15;;;-1.60;84.40;;;;;;9172188;19;20030;-74
2024/01/18 05:18:11;;;;;;;26.15;12.95;;;-1.60;84.40;;;;;;9175769;19;20011;-74
2024/01/18 05:21:21;;;;;;;20.52;11.50;;;-1.60;84.40;;;;;;9175338;19;20422;-75
2024/01/18 05:24:26;;;;;;;21.13;11.30;;;-1.60;84.40;;;;;;9175255;19;20373;-75
2024/01/18 05:27:34;;;;;;;22.75;11.82;;;-1.70;84.40;;;;;;9174883;19;20038;-75
2024/01/18 05:30:39;;;;;;;28.42;12.80;;;-1.70;84.40;;;;;;9174516;19;20014;-75
2024/01/18 05:33:50;;;;;;;18.73;11.15;;;-1.70;84.40;;;;;;9175196;19;20089;-74
2024/01/18 05:36:55;;;;;;;21.65;11.50;;;-1.70;84.40;;;;;;9175193;19;20015;-75
2024/01/18 05:40:03;;;;;;;22.98;12.00;;;-1.70;84.50;;;;;;9174467;19;20595;-75
2024/01/18 05:43:09;;;;;;;21.38;11.93;;;-1.80;84.50;;;;;;9172068;19;20362;-75
2024/01/18 05:46:16;;;;;;;21.23;11.85;;;-1.80;84.40;;;;;;9173556;19;20011;-74
2024/01/18 05:49:28;;;;;;;22.88;11.57;;;-1.80;84.40;;;;;;9174395;19;20021;-73
2024/01/18 05:52:36;;;;;;;29.65;13.20;;;-1.80;84.40;;;;;;9172064;19;20034;-72
2024/01/18 05:55:41;;;;;;;25.98;12.55;;;-1.90;84.40;;;;;;9173384;19;20386;-73
2024/01/18 05:58:49;;;;;;;24.27;12.02;;;-1.90;84.40;;;;;;9174477;19;20026;-74
2024/01/18 06:01:55;;;;;;;24.70;12.35;;;-1.90;84.50;;;;;;9171844;19;20155;-75
2024/01/18 06:05:06;;;;;;;20.58;11.82;;;-1.90;84.50;;;;;;9173625;19;20722;-74
2024/01/18 06:08:15;;;;;;;26.25;11.48;;;-1.90;84.50;;;;;;9171945;19;20476;-75
2024/01/18 06:11:24;;;;;;;22.83;11.65;;;-1.90;84.50;;;;;;9167415;19;20018;-70
2024/01/18 06:14:31;;;;;;;25.23;12.02;;;-1.90;84.50;;;;;;9180519;19;20015;-70
2024/01/18 06:17:39;;;;;;;25.38;12.75;;;-1.90;84.50;;;;;;9182019;19;20021;-71
2024/01/18 06:20:47;;;;;;;22.00;11.63;;;-1.90;84.60;;;;;;9180569;19;20138;-73
2024/01/18 06:23:55;;;;;;;24.52;11.77;;;-2.00;84.40;;;;;;9180169;19;20029;-72
2024/01/18 06:27:01;;;;;;;30.00;12.73;;;-2.00;84.40;;;;;;9180009;19;20426;-72
2024/01/18 06:30:11;;;;;;;24.83;11.68;;;-2.00;84.40;;;;;;9179825;19;20017;-71
2024/01/18 06:33:17;;;;;;;24.67;12.40;;;-2.00;84.50;;;;;;9182098;19;20373;-71
2024/01/18 06:36:27;;;;;;;24.33;12.43;;;-2.00;84.50;;;;;;9181285;19;20018;-71
2024/01/18 06:39:33;;;;;;;26.85;12.50;;;-2.00;84.50;;;;;;9180790;19;20364;-70
2024/01/18 06:42:40;;;;;;;28.00;12.98;;;-2.00;84.50;;;;;;9180471;19;20019;-71
2024/01/18 06:45:46;;;;;;;24.15;12.73;;;-2.00;84.40;;;;;;9179738;19;20010;-70
2024/01/18 06:48:57;;;;;;;25.25;12.18;;;-2.00;84.40;;;;;;9181996;19;20045;-70
2024/01/18 06:52:05;;;;;;;24.95;11.10;;;-2.10;84.40;;;;;;9181554;19;20021;-70
2024/01/18 06:55:13;;;;;;;20.30;11.20;;;-2.10;84.40;;;;;;9179967;19;20022;-70
2024/01/18 06:58:19;;;;;;;23.52;12.07;;;-2.10;84.40;;;;;;9181221;19;20022;-71
2024/01/18 07:01:26;;;;;;;27.98;13.00;;;-2.10;84.40;;;;;;9179664;19;20074;-70
2024/01/18 07:04:32;;;;;;;30.15;11.65;;;-2.10;84.50;;;;;;9178829;19;20025;-70
2024/01/18 07:07:42;;;;;;;24.55;11.82;;;-2.10;84.50;;;;;;9175300;19;20010;-70
2024/01/18 07:10:48;;;;;;;31.25;12.82;;;-2.20;85.00;;;;;;9174936;19;20029;-70
2024/01/18 07:13:56;;;;;;;22.00;11.68;;;-2.20;84.40;;;;;;9178045;19;20022;-71
2024/01/18 07:17:02;;;;;;;20.85;11.65;;;-2.20;84.40;;;;;;9177096;19;20875;-71
2024/01/18 07:20:11;;;;;;;25.15;13.20;;;-2.20;84.50;;;;;;9176563;19;20014;-70
2024/01/18 07:23:19;;;;;;;29.35;13.38;;;-2.20;84.50;;;;;;9176285;19;20077;-68
2024/01/18 07:26:27;;;;;;;22.38;11.20;;;-2.20;84.50;;;;;;9178214;19;20022;-71
2024/01/18 07:29:35;;;;;;;21.02;11.10;;;-2.20;84.50;;;;;;9176578;19;20494;-70
2024/01/18 07:32:44;;;;;;;23.05;9.90;;;-2.20;84.50;;;;;;9179013;19;20030;-70
2024/01/18 07:35:49;;;;;;;25.95;10.73;;;-2.20;84.50;;;;;;9177809;19;20024;-70
2024/01/18 07:39:00;;;;;;;17.30;10.00;;;-2.20;84.50;;;;;;9177220;19;20487;-72
2024/01/18 07:42:06;;;;;;;18.02;9.57;;;-2.20;84.50;;;;;;9175689;19;20078;-70
2024/01/18 07:45:14;;;;;;;24.25;9.68;;;-2.20;84.50;;;;;;9176957;19;20022;-73
2024/01/18 07:48:20;;;;;;;18.15;8.90;;;-2.20;84.50;;;;;;9175742;19;20464;-69
2024/01/18 07:51:28;;;;;;;23.65;9.60;;;-2.30;84.50;;;;;;9174556;19;20381;-70
2024/01/18 07:54:36;;;;;;;17.25;9.00;;;-2.20;84.50;;;;;;9176774;19;20475;-70
2024/01/18 07:57:45;;;;;;;22.40;8.93;;;-2.30;84.50;;;;;;9177843;19;20017;-69
2024/01/18 08:00:52;;;;;;;16.75;8.73;;;-2.30;84.50;;;;;;9172221;19;20015;-69
2024/01/18 08:04:00;;;;;;;17.50;9.60;;;-2.20;84.60;;;;;;9170280;19;20022;-69
2024/01/18 08:07:06;;;;;;;23.27;9.52;;;-2.20;84.60;;;;;;9174300;19;20504;-69
2024/01/18 08:10:16;;;;;;;21.88;9.48;;;-2.30;84.60;;;;;;9172423;19;20359;-70
2024/01/18 08:13:22;;;;;;;17.73;8.80;;;-2.30;84.60;;;;;;9169847;19;20010;-69
2024/01/18 08:16:29;;;;;;;18.60;9.82;;;-2.30;84.60;;;;;;9175693;19;20082;-70
2024/01/18 08:19:35;;;;;;;23.80;9.73;;;-2.20;84.60;;;;;;9176796;19;20049;-71
2024/01/18 08:22:45;;;;;;;20.45;9.80;;;-2.20;84.60;;;;;;9176803;19;20018;-69
2024/01/18 08:25:57;;;;;;;26.27;9.35;;;-2.20;84.60;;;;;;9177108;19;20021;-68
2024/01/18 08:29:04;;;;;;;21.10;9.27;;;-2.30;84.60;;;;;;9175052;19;20487;-74
2024/01/18 08:32:10;;;;;;;19.05;8.90;;;-2.20;84.60;;;;;;9173888;19;20006;-73
2024/01/18 08:35:18;;;;;;;19.08;9.98;;;-2.20;84.60;;;;;;9170007;19;20385;-74
2024/01/18 08:38:24;;;;;;;20.30;10.48;;;-2.20;84.70;;;;;;9175634;19;20376;-73
2024/01/18 08:41:34;;;;;;;20.88;10.60;;;-2.20;84.70;;;;;;9175265;19;20112;-73
2024/01/18 08:44:45;;;;;;;20.67;10.27;;;-2.20;84.70;;;;;;9175617;19;20461;-73
2024/01/18 08:47:53;;;;;;;21.75;9.75;;;-2.00;84.80;;;;;;9171932;19;20022;-74
2024/01/18 08:50:59;;;;;;;17.13;10.02;;;-2.20;84.70;;;;;;9175343;19;20510;-73
2024/01/18 08:54:07;;;;;;;20.23;10.15;;;-2.20;85.30;;;;;;9174830;19;20360;-74
2024/01/18 08:57:16;;;;;;;19.17;9.60;;;-2.20;84.80;;;;;;9175125;19;20134;-73
2024/01/18 09:00:27;;;;;;;19.13;10.15;;;-2.10;84.80;;;;;;9170845;19;20014;-71
2024/01/18 09:03:33;;;;;;;18.15;9.45;;;-2.10;84.80;;;;;;9174489;19;20021;-74
2024/01/18 09:06:41;;;;;;;23.55;10.15;;;-2.10;84.80;;;;;;9173260;19;20015;-73
2024/01/18 09:09:46;;;;;;;18.02;9.57;;;-2.10;84.80;;;;;;9170488;19;20519;-72
2024/01/18 09:12:57;;;;;;;20.08;9.80;;;-2.00;84.90;;;;;;9175119;19;20021;-73
2024/01/18 09:16:03;;;;;;;20.77;10.30;;;-1.90;85.00;;;;;;9171261;19;20071;-74
2024/01/18 09:19:12;;;;;;;22.80;10.07;;;-2.00;85.00;;;;;;9170819;19;20029;-73
2024/01/18 09:22:19;;;;;;;20.00;10.30;;;-1.90;85.60;;;;;;9171566;19;20516;-74
2024/01/18 09:25:27;;;;;;;23.67;11.00;;;-1.90;85.00;;;;;;9173210;19;20026;-75
2024/01/18 09:28:35;;;;;;;24.33;10.70;;;-1.90;85.00;;;;;;9170270;19;20865;-72
2024/01/18 09:31:43;;;;;;;27.50;9.95;;;-1.80;85.00;;;;;;9172509;19;20070;-73
2024/01/18 09:34:48;;;;;;;25.77;11.57;;;-1.80;85.60;;;;;;9172896;19;20014;-73
2024/01/18 09:37:56;;;;;;;19.73;9.23;;;-1.80;85.00;;;;;;9173188;19;20019;-74
2024/01/18 09:41:05;;;;;;;13.95;8.35;;;-1.70;85.10;;;;;;9173950;19;20018;-72
2024/01/18 09:44:16;;;;;;;16.95;7.47;;;-1.70;85.10;;;;;;9169091;19;20606;-71
2024/01/18 09:47:22;;;;;;;13.48;7.78;;;-1.60;85.10;;;;;;9174052;19;20010;-73
2024/01/18 09:50:29;;;;;;;16.40;7.45;;;-1.60;85.10;;;;;;9176225;19;20042;-72
2024/01/18 09:53:36;;;;;;;15.63;7.32;;;-1.50;85.20;;;;;;9178675;19;20511;-71
2024/01/18 09:56:47;;;;;;;12.05;6.60;;;-1.50;85.20;;;;;;9175615;19;20011;-70
2024/01/18 09:59:59;;;;;;;17.65;8.85;;;-1.40;85.20;;;;;;9178724;19;20702;-70
2024/01/18 10:03:07;;;;;;;16.20;7.63;;;-1.40;85.40;;;;;;9180027;19;20098;-72
2024/01/18 10:06:13;;;;;;;14.63;8.23;;;-1.30;85.50;;;;;;9179464;19;20022;-72
2024/01/18 10:09:21;;;;;;;20.52;8.68;;;-1.20;85.60;;;;;;9175136;19;20021;-71
2024/01/18 10:12:31;;;;;;;13.45;6.82;;;-1.10;85.70;;;;;;9179880;19;20139;-72
2024/01/18 10:15:42;;;;;;;17.65;7.93;;;-0.90;85.90;;;;;;9181274;19;20480;-72
2024/01/18 10:18:51;;;;;;;21.98;8.13;;;-0.70;86.00;;;;;;9179531;19;20029;-71
2024/01/18 10:22:00;;;;;;;18.63;7.53;;;-0.60;86.10;;;;;;9180992;19;20013;-72
2024/01/18 10:25:06;;;;;;;14.40;7.75;;;-0.30;86.40;;;;;;9179621;19;20021;-72
2024/01/18 10:28:15;;;;;;;22.45;8.90;;;-0.10;86.40;;;;;;9179028;19;20014;-73
2024/01/18 10:31:23;;;;;;;17.67;8.02;;;0.20;86.50;;;;;;9179727;19;20052;-72
2024/01/18 10:34:31;;;;;;;14.60;6.95;;;0.40;86.50;;;;;;9181237;19;20025;-72
2024/01/18 10:37:37;;;;;;;20.15;7.72;;;0.60;86.40;;;;;;9180611;19;20018;-72
2024/01/18 10:40:53;;;;;;;19.42;7.50;;;0.80;86.40;;;;;;9181267;19;20029;-73
2024/01/18 10:44:00;;;;;;;15.52;6.53;;;1.00;86.50;;;;;;9180271;19;20029;-73
2024/01/18 10:47:12;;;;;;;12.35;6.35;;;1.20;86.50;;;;;;9180844;19;20018;-72
2024/01/18 10:50:19;;;;;;;16.23;4.60;;;1.30;86.50;;;;;;9175079;19;20491;-73
2024/01/18 10:53:29;;;;;;;8.98;4.03;;;1.40;86.40;;;;;;9179727;19;20480;-73
2024/01/18 10:56:36;;;;;;;15.13;3.30;;;1.50;86.50;;;;;;9181341;19;20014;-72
2024/01/18 10:59:44;;;;;;;10.93;3.92;;;1.60;86.50;;;;;;9175077;19;20015;-73
2024/01/18 11:02:53;;;;;;;10.15;3.28;;;1.70;86.50;;;;;;9179737;19;20010;-73
2024/01/18 11:06:08;;;;;;;8.82;3.55;;;1.80;86.50;;;;;;9178625;19;20022;-73
2024/01/18 11:09:15;;;;;;;4.35;2.47;;;1.80;86.40;;;;;;9175794;19;20612;-75
2024/01/18 11:12:23;;;;;;;6.85;3.08;;;1.90;86.40;;;;;;9179340;19;20023;-74
2024/01/18 11:15:30;;;;;;;4.45;2.60;;;1.90;86.40;;;;;;9178583;19;20025;-74
2024/01/18 11:18:40;;;;;;;7.28;2.78;;;2.00;86.40;;;;;;9179059;19;20006;-75
2024/01/18 11:21:47;;;;;;;9.93;3.05;;;2.00;86.30;;;;;;9177265;19;20146;-76
2024/01/18 11:24:55;;;;;;;4.43;2.70;;;2.10;86.30;;;;;;9177341;19;20033;-75
2024/01/18 11:28:01;;;;;;;5.85;2.33;;;2.20;86.30;;;;;;9175015;19;20516;-74
2024/01/18 11:31:09;;;;;;;4.40;2.45;;;2.20;86.30;;;;;;9177736;19;20029;-75
2024/01/18 11:34:28;;;;;;;13.07;2.35;;;2.30;86.30;;;;;;9178712;19;20014;-75
2024/01/18 11:37:35;;;;;;;2.85;1.67;;;2.30;86.30;;;;;;9177407;19;20018;-72
2024/01/18 11:40:41;;;;;;;5.93;2.10;;;2.40;86.30;;;;;;9176239;19;20405;-73
2024/01/18 11:43:55;;;;;;;5.78;2.05;;;2.50;86.30;;;;;;9177187;19;20011;-73
2024/01/18 11:47:01;;;;;;;8.82;1.98;;;2.50;86.20;;;;;;9175864;19;20063;-73
2024/01/18 11:50:12;;;;;;;7.38;2.65;;;2.60;86.20;;;;;;9176667;19;20003;-74
2024/01/18 11:53:21;;;;;;;6.15;2.40;;;2.60;86.20;;;;;;9178652;19;20023;-73
2024/01/18 11:56:29;;;;;;;13.07;3.40;;;2.60;86.10;;;;;;9176957;19;20011;-73
2024/01/18 11:59:35;;;;;;;6.40;2.33;;;2.70;86.10;;;;;;9175040;19;20022;-74
2024/01/18 12:02:44;;;;;;;11.60;2.50;;;2.70;86.10;;;;;;9171467;19;20835;-72
2024/01/18 12:05:54;;;;;;;7.38;1.98;;;2.70;86.00;;;;;;9172454;19;20018;-74
2024/01/18 12:09:04;;;;;;;;;;;2.70;86.00;;;;;;9171052;19;20010;-73
2024/01/18 12:12:10;;;;;;;8.20;2.17;;;2.80;85.90;;;;;;9176418;19;19923;-73
2024/01/18 12:15:19;;;;;;;8.15;1.98;;;2.70;85.90;;;;;;9177266;19;20025;-73
2024/01/18 12:18:25;;;;;;;5.93;2.13;;;2.80;85.90;;;;;;9174481;19;20014;-74
2024/01/18 12:21:35;;;;;;;8.40;2.40;;;2.80;86.00;;;;;;9174144;19;20022;-73
2024/01/18 12:24:42;;;;;;;5.82;2.08;;;2.80;86.00;;;;;;9175853;19;20017;-73
2024/01/18 12:27:50;;;;;;;5.43;1.92;;;2.80;86.00;;;;;;9175146;19;20014;-72
2024/01/18 12:31:00;;;;;;;6.25;2.10;;;2.80;86.00;;;;;;9173288;19;20021;-72
2024/01/18 12:34:10;;;;;;;3.75;1.98;;;2.90;86.20;;;;;;9174279;19;20018;-73
2024/01/18 12:37:18;;;;;;;3.17;1.80;;;2.90;86.20;;;;;;9174466;19;20021;-72
2024/01/18 12:40:26;;;;;;;5.88;2.28;;;2.90;86.10;;;;;;9172727;19;20354;-74
2024/01/18 12:43:31;;;;;;;6.88;2.10;;;3.00;86.20;;;;;;9166038;19;20029;-72
2024/01/18 12:46:40;;;;;;;4.88;1.73;;;3.00;86.10;;;;;;9174149;19;20011;-71
2024/01/18 12:49:46;;;;;;;7.20;1.88;;;3.10;86.10;;;;;;9175987;19;20014;-71
2024/01/18 12:52:56;;;;;;;11.88;2.30;;;3.10;86.10;;;;;;9175265;19;20049;-72
2024/01/18 12:56:06;;;;;;;3.33;1.70;;;3.10;86.10;;;;;;9175946;19;20928;-73
2024/01/18 12:59:16;;;;;;;5.50;1.75;;;3.20;86.10;;;;;;9172305;19;20014;-72
2024/01/18 13:02:25;;;;;;;3.75;1.90;;;3.20;86.00;;;;;;9175414;19;20030;-74
2024/01/18 13:05:33;;;;;;;3.53;1.73;;;3.20;86.00;;;;;;9175543;19;20029;-75
2024/01/18 13:08:41;;;;;;;7.85;2.15;;;3.20;86.00;;;;;;9173448;19;20011;-75
2024/01/18 13:11:50;;;;;;;6.18;1.52;;;3.20;86.00;;;;;;9171173;19;20034;-68
2024/01/18 13:14:56;;;;;;;3.88;1.40;;;3.30;86.00;;;;;;9174073;19;20485;-69
2024/01/18 13:18:04;;;;;;;10.32;1.15;;;3.30;86.00;;;;;;9173437;19;20353;-69
2024/01/18 13:21:10;;;;;;;4.47;1.50;;;3.30;86.00;;;;;;9176048;19;20014;-69
2024/01/18 13:24:20;;;;;;;3.40;1.00;;;3.30;86.00;;;;;;9184935;19;20025;-69
2024/01/18 13:27:26;;;;;;;8.07;1.50;;;3.30;86.00;;;;;;9184177;19;20021;-70
2024/01/18 13:30:42;;;;;;;5.93;1.90;;;3.30;86.00;;;;;;9183188;19;20014;-69
2024/01/18 13:33:51;;;;;;;9.45;1.85;;;3.40;86.00;;;;;;9192820;19;20524;-68
2024/01/18 13:37:00;;;;;;;4.53;1.67;;;3.40;86.00;;;;;;9191689;19;20010;-68
2024/01/18 13:40:10;;;;;;;3.17;1.38;;;3.40;86.00;;;;;;9189315;19;20014;-69
2024/01/18 13:43:18;;;;;;;3.88;1.70;;;3.40;85.90;;;;;;9191361;19;20049;-68
2024/01/18 13:46:26;;;;;;;4.82;2.00;;;3.40;85.90;;;;;;9190820;19;20377;-68
2024/01/18 13:49:35;;;;;;;11.05;1.23;;;3.50;86.00;;;;;;9188577;19;20014;-68
2024/01/18 13:52:41;;;;;;;5.63;1.83;;;3.40;85.90;;;;;;9193722;19;20011;-68
2024/01/18 13:55:53;;;;;;;5.57;2.58;;;3.40;85.90;;;;;;9189347;19;20025;-67
2024/01/18 13:58:59;;;;;;;5.97;1.60;;;3.50;86.60;;;;;;9190902;19;20430;-68
2024/01/18 14:02:06;;;;;;;7.30;1.55;;;3.50;85.90;;;;;;9188973;19;20029;-68
2024/01/18 14:05:12;;;;;;;9.38;1.63;;;3.50;85.90;;;;;;9192480;19;20011;-68
2024/01/18 14:08:20;;;;;;;2.75;1.50;;;3.50;85.90;;;;;;9188527;19;20025;-68
2024/01/18 14:11:29;;;;;;;5.90;1.58;;;3.50;85.90;;;;;;9185023;19;20345;-69
2024/01/18 14:14:37;;;;;;;3.65;1.58;;;3.50;85.90;;;;;;9189281;19;20452;-68
2024/01/18 14:17:43;;;;;;;6.43;1.67;;;3.50;85.80;;;;;;9188667;19;20025;-67
2024/01/18 14:20:54;;;;;;;7.13;2.30;;;3.60;85.80;;;;;;9181327;19;20014;-73
2024/01/18 14:24:00;;;;;;;5.28;1.50;;;3.60;85.80;;;;;;9179760;19;20025;-72
2024/01/18 14:27:10;;;;;;;7.60;1.35;;;3.60;85.70;;;;;;9179183;19;20011;-73
2024/01/18 14:30:16;;;;;;;1.55;0.90;;;3.60;85.70;;;;;;9177047;19;20022;-72
2024/01/18 14:33:24;;;;;;;2.83;1.10;;;3.60;85.70;;;;;;9174332;19;20488;-73
2024/01/18 14:36:30;;;;;;;2.58;0.80;;;3.60;85.70;;;;;;9176776;19;20019;-72
2024/01/18 14:39:38;;;;;;;2.05;0.90;;;3.50;85.60;;;;;;9176510;19;20026;-72
2024/01/18 14:42:46;;;;;;;1.45;0.90;;;3.50;85.60;;;;;;9177138;19;20010;-72
2024/01/18 14:45:54;;;;;;;3.42;1.33;;;3.50;85.60;;;;;;9173794;19;21306;-71
2024/01/18 14:49:01;;;;;;;3.55;1.02;;;3.50;85.60;;;;;;9170787;19;20025;-72
2024/01/18 14:52:10;;;;;;;1.02;0.70;;;3.50;85.60;;;;;;9163750;19;20491;-72
2024/01/18 14:55:17;;;;;;;3.78;1.23;;;3.50;85.60;;;;;;9175148;19;20074;-71
2024/01/18 14:58:27;;;;;;;5.00;0.90;;;3.40;85.60;;;;;;9177077;19;20029;-71
2024/01/18 15:01:32;;;;;;;3.20;1.00;;;3.40;85.60;;;;;;9180943;19;20018;-72
2024/01/18 15:04:41;;;;;;;2.92;1.40;;;3.40;85.60;;;;;;9181344;19;20285;-73
2024/01/18 15:07:47;;;;;;;3.67;1.80;;;3.40;85.60;;;;;;9175998;19;20763;-73
2024/01/18 15:10:55;;;;;;;6.53;1.45;;;3.40;85.60;;;;;;9171778;19;20018;-72
2024/01/18 15:14:03;;;;;;;7.57;2.45;;;3.40;85.50;;;;;;9179068;19;20014;-72
2024/01/18 15:17:11;;;;;;;4.68;2.20;;;3.40;85.50;;;;;;9178914;19;20429;-72
2024/01/18 15:20:17;;;;;;;7.22;2.15;;;3.40;85.50;;;;;;9177740;19;20014;-73
2024/01/18 15:23:26;;;;;;;5.88;2.67;;;3.40;85.50;;;;;;9177048;19;20916;-72
2024/01/18 15:26:31;;;;;;;7.40;2.00;;;3.40;85.50;;;;;;9179729;19;20015;-72
2024/01/18 15:29:42;;;;;;;5.53;2.03;;;3.30;85.50;;;;;;9179649;19;20025;-79
2024/01/18 15:32:47;;;;;;;10.48;2.28;;;3.30;86.10;;;;;;9176050;19;20018;-79
2024/01/18 15:35:56;;;;;;;9.25;2.30;;;3.30;85.40;;;;;;9175774;19;20026;-80
2024/01/18 15:39:01;;;;;;;5.25;2.28;;;3.30;85.40;;;;;;9172867;19;20401;-79
2024/01/18 15:42:09;;;;;;;2.90;1.90;;;3.20;85.40;;;;;;9175527;19;20014;-78
2024/01/18 15:45:17;;;;;;;3.60;1.80;;;3.20;85.40;;;;;;9172349;19;20010;-78
2024/01/18 15:48:27;;;;;;;6.72;2.00;;;3.20;85.40;;;;;;9174638;19;20010;-80
2024/01/18 15:51:33;;;;;;;5.03;2.10;;;3.20;85.40;;;;;;9173229;19;20048;-74
2024/01/18 15:54:40;;;;;;;4.75;2.00;;;3.20;85.40;;;;;;9171580;19;20010;-78
2024/01/18 15:57:46;;;;;;;4.47;1.88;;;3.10;85.40;;;;;;9174300;19;20022;-80
2024/01/18 16:00:57;;;;;;;10.23;1.90;;;3.10;85.40;;;;;;9175701;19;20477;-75
2024/01/18 16:04:02;;;;;;;5.03;2.20;;;3.00;85.30;;;;;;9177253;19;20023;-77
2024/01/18 16:07:10;;;;;;;8.32;2.58;;;3.00;85.30;;;;;;9173210;19;20022;-79
2024/01/18 16:10:16;;;;;;;4.75;2.53;;;3.00;85.40;;;;;;9170740;19;20021;-78